TimeCST,TemperatureF,Dew PointF,Humidity,Sea Level PressureIn,VisibilityMPH,Wind Direction,Wind SpeedMPH,Gust SpeedMPH,PrecipitationIn,Events,Conditions,WindDirDegrees,DateUTC
12:53 AM,19.0,10.0,68,30.20,10.0,North,10.4,-,N/A,,Overcast,350,2013-01-01 06:53:00
1:53 AM,18.0,9.0,68,30.22,10.0,North,9.2,-,N/A,,Overcast,350,2013-01-01 07:53:00
2:53 AM,17.1,9.0,71,30.24,10.0,NNW,6.9,-,N/A,,Overcast,340,2013-01-01 08:53:00
3:53 AM,16.0,9.0,74,30.23,10.0,North,9.2,-,N/A,,Overcast,350,2013-01-01 09:53:00
4:53 AM,14.0,7.0,74,30.25,10.0,North,8.1,-,N/A,,Scattered Clouds,350,2013-01-01 10:53:00
5:53 AM,12.0,6.1,77,30.26,10.0,North,9.2,-,N/A,,Clear,350,2013-01-01 11:53:00
6:53 AM,10.4,5.0,79,30.22,10.0,North,8.1,-,N/A,,Clear,360,2013-01-01 12:53:00
7:53 AM,10.0,3.9,76,30.25,10.0,North,9.2,-,N/A,,Clear,350,2013-01-01 13:53:00
8:53 AM,12.2,5.0,73,30.26,10.0,North,4.6,-,N/A,,Clear,350,2013-01-01 14:53:00
9:53 AM,14.0,5.0,67,30.33,10.0,Calm,Calm,-,N/A,,Clear,0,2013-01-01 15:53:00
10:53 AM,16.0,6.1,65,30.33,10.0,Calm,Calm,-,N/A,,Clear,0,2013-01-01 16:53:00
11:53 AM,19.9,7.0,57,30.30,10.0,NNW,6.9,-,N/A,,Clear,340,2013-01-01 17:53:00
12:53 PM,19.9,8.1,60,30.26,10.0,NW,9.2,-,N/A,,Clear,310,2013-01-01 18:53:00
1:53 PM,21.0,7.0,55,30.25,10.0,NNW,9.2,-,N/A,,Clear,330,2013-01-01 19:53:00
2:53 PM,19.9,5.0,52,30.26,10.0,NNW,8.1,-,N/A,,Clear,340,2013-01-01 20:53:00
3:53 PM,19.9,5.0,52,30.26,10.0,NNW,5.8,-,N/A,,Clear,340,2013-01-01 21:53:00
4:53 PM,18.0,5.0,57,30.27,10.0,WNW,3.5,-,N/A,,Clear,300,2013-01-01 22:53:00
5:53 PM,16.0,5.0,62,30.28,9.0,Calm,Calm,-,N/A,,Clear,0,2013-01-01 23:53:00
6:53 PM,12.0,5.0,73,30.28,6.0,Calm,Calm,-,N/A,,Haze,0,2013-01-02 00:53:00
7:53 PM,10.0,3.9,76,30.26,10.0,North,3.5,-,N/A,,Clear,360,2013-01-02 01:53:00
8:53 PM,10.0,3.9,76,30.26,10.0,Calm,Calm,-,N/A,,Clear,0,2013-01-02 02:53:00
9:53 PM,10.0,3.9,76,30.27,6.0,Calm,Calm,-,N/A,,Haze,0,2013-01-02 03:53:00
10:53 PM,10.0,3.9,76,30.26,10.0,Calm,Calm,-,N/A,,Clear,0,2013-01-02 04:53:00
11:53 PM,9.0,3.0,77,30.25,10.0,Calm,Calm,-,N/A,,Clear,0,2013-01-02 05:53:00